Time;durP1;ratioP1;P1;durP2;ratioP2;P2;SDS_P1;SDS_P2;PMS_P1;PMS_P2;Temp;Humidity;BMP_temperature;BMP_pressure;BME280_temperature;BME280_humidity;BME280_pressure;Samples;Min_cycle;Max_cycle;Signal;HPM_P1;HPM_P2
2023/04/03 00:01:24;;;;;;;1.30;1.30;;;17.80;66.00;;;;;;5092808;27;43467;-69
2023/04/03 00:03:52;;;;;;;1.30;1.30;;;17.80;65.80;;;;;;5097344;27;43902;-70
2023/04/03 00:06:20;;;;;;;1.13;1.13;;;17.80;65.80;;;;;;5103446;27;43485;-70
2023/04/03 00:08:48;;;;;;;1.30;1.30;;;17.80;65.90;;;;;;5097575;27;43827;-70
2023/04/03 00:11:16;;;;;;;1.27;1.27;;;17.70;65.90;;;;;;5104566;27;43466;-71
2023/04/03 00:13:44;;;;;;;1.33;1.33;;;17.70;65.90;;;;;;5097379;27;43763;-70
2023/04/03 00:16:13;;;;;;;1.20;1.20;;;17.70;65.90;;;;;;5096929;27;43575;-71
2023/04/03 00:18:41;;;;;;;1.30;1.30;;;17.70;65.80;;;;;;5087648;27;43363;-71
2023/04/03 00:21:10;;;;;;;1.23;1.23;;;17.70;65.90;;;;;;5103785;27;43549;-69
2023/04/03 00:23:38;;;;;;;1.30;1.30;;;17.70;65.90;;;;;;5089676;27;43925;-71
2023/04/03 00:26:06;;;;;;;1.30;1.30;;;17.70;66.00;;;;;;5102843;27;43430;-72
2023/04/03 00:28:34;;;;;;;1.20;1.20;;;17.70;65.90;;;;;;5086157;27;43910;-70
2023/04/03 00:31:02;;;;;;;1.20;1.20;;;17.70;66.10;;;;;;5101013;27;43423;-69
2023/04/03 00:33:31;;;;;;;1.13;1.13;;;17.80;65.90;;;;;;5078050;27;45715;-72
2023/04/03 00:35:59;;;;;;;1.43;1.43;;;17.90;65.40;;;;;;5083070;27;45008;-71
2023/04/03 00:38:28;;;;;;;1.30;1.30;;;18.00;65.10;;;;;;5075599;27;43340;-71
2023/04/03 00:40:56;;;;;;;1.23;1.23;;;18.00;64.90;;;;;;5096308;27;43786;-70
2023/04/03 00:43:26;;;;;;;1.17;1.17;;;18.00;65.00;;;;;;5086241;27;45873;-69
2023/04/03 00:45:54;;;;;;;1.20;1.20;;;17.90;65.20;;;;;;5101473;27;43397;-71
2023/04/03 00:48:24;;;;;;;1.40;1.40;;;17.90;65.10;;;;;;5088054;27;43491;-71
2023/04/03 00:50:53;;;;;;;1.10;1.10;;;17.90;65.20;;;;;;5082552;27;43918;-70
2023/04/03 00:53:23;;;;;;;1.50;1.50;;;17.90;65.40;;;;;;5095787;27;43830;-70
2023/04/03 00:55:51;;;;;;;1.20;1.20;;;17.80;65.40;;;;;;5082250;27;43450;-71
2023/04/03 00:58:21;;;;;;;1.30;1.30;;;17.80;65.60;;;;;;5104084;27;43415;-70
2023/04/03 01:00:53;;;;;;;1.20;1.20;;;17.80;65.80;;;;;;5082889;27;43415;-71
2023/04/03 01:03:21;;;;;;;1.10;1.10;;;17.80;65.60;;;;;;5103932;27;44030;-71
2023/04/03 01:05:49;;;;;;;1.30;1.30;;;17.80;65.70;;;;;;5084266;27;44683;-71
2023/04/03 01:08:18;;;;;;;1.20;1.20;;;17.80;65.80;;;;;;5102071;27;43385;-70
2023/04/03 01:10:46;;;;;;;1.30;1.30;;;17.70;65.90;;;;;;5091113;27;43445;-70
2023/04/03 01:13:20;;;;;;;1.37;1.37;;;17.70;65.90;;;;;;5081716;27;45755;-72
2023/04/03 01:15:48;;;;;;;1.40;1.40;;;17.70;65.90;;;;;;5078808;27;44757;-71
2023/04/03 01:18:16;;;;;;;1.20;1.20;;;17.70;65.80;;;;;;5083862;27;43487;-71
2023/04/03 01:21:32;;;;;;;1.20;1.20;;;17.90;65.50;;;;;;5106084;27;43616;-71
2023/04/03 01:24:10;;;;;;;1.30;1.30;;;17.90;65.10;;;;;;5084459;27;43860;-73
2023/04/03 01:26:38;;;;;;;1.13;1.13;;;17.90;65.10;;;;;;5076021;27;45338;-72
2023/04/03 01:29:06;;;;;;;1.20;1.20;;;17.80;65.20;;;;;;5080489;28;43347;-71
2023/04/03 01:31:49;;;;;;;1.10;1.10;;;17.80;65.40;;;;;;5099987;27;43682;-70
2023/04/03 01:34:17;;;;;;;1.10;1.10;;;17.80;65.60;;;;;;5082688;27;45833;-71
2023/04/03 01:36:45;;;;;;;1.10;1.10;;;17.70;65.70;;;;;;5075411;27;44884;-70
2023/04/03 01:39:13;;;;;;;1.30;1.30;;;17.70;65.80;;;;;;5086198;27;43945;-72
2023/04/03 01:41:41;;;;;;;1.17;1.17;;;17.70;65.90;;;;;;5087430;27;43473;-70
2023/04/03 01:44:14;;;;;;;1.13;1.13;;;17.60;65.80;;;;;;5082657;27;44805;-71
2023/04/03 01:46:44;;;;;;;1.20;1.20;;;17.70;66.00;;;;;;5086135;27;44742;-71
2023/04/03 01:49:12;;;;;;;1.30;1.30;;;17.80;65.90;;;;;;5086448;27;43447;-70
2023/04/03 01:51:40;;;;;;;1.07;1.07;;;17.90;65.50;;;;;;5103406;27;43447;-71
2023/04/03 01:54:08;;;;;;;1.10;1.10;;;18.00;65.10;;;;;;5077510;27;44752;-70
2023/04/03 01:56:38;;;;;;;1.20;1.20;;;18.20;64.80;;;;;;5081097;27;44943;-70
2023/04/03 01:59:06;;;;;;;0.97;0.97;;;18.30;64.30;;;;;;5087980;27;43462;-71
2023/04/03 02:01:34;;;;;;;1.13;1.13;;;18.50;63.80;;;;;;5076218;27;44195;-71
2023/04/03 02:04:04;;;;;;;0.90;0.90;;;18.60;63.30;;;;;;5093855;27;43953;-70
2023/04/03 02:06:32;;;;;;;1.20;1.20;;;18.70;62.90;;;;;;5100196;27;43411;-70
2023/04/03 02:09:00;;;;;;;1.13;1.13;;;18.80;62.50;;;;;;5073036;27;43409;-70
2023/04/03 02:11:28;;;;;;;1.23;1.23;;;18.90;62.30;;;;;;5098751;27;43997;-71
2023/04/03 02:13:56;;;;;;;1.10;1.10;;;19.00;62.20;;;;;;5085933;27;44045;-71
2023/04/03 02:16:24;;;;;;;1.10;1.10;;;19.00;62.20;;;;;;5075190;27;44328;-71
2023/04/03 02:18:52;;;;;;;1.00;1.00;;;18.90;62.30;;;;;;5079219;27;43685;-70
2023/04/03 02:21:21;;;;;;;1.10;1.10;;;18.70;62.50;;;;;;5077532;27;43894;-72
2023/04/03 02:23:49;;;;;;;1.10;1.10;;;18.60;63.00;;;;;;5087532;27;43898;-71
2023/04/03 02:26:19;;;;;;;1.07;1.07;;;18.40;63.70;;;;;;5081599;27;44798;-70
2023/04/03 02:28:47;;;;;;;1.20;1.20;;;18.40;63.80;;;;;;5088974;27;43629;-70
2023/04/03 02:31:15;;;;;;;1.10;1.10;;;18.30;63.80;;;;;;5074394;27;43368;-72
2023/04/03 02:33:46;;;;;;;1.10;1.10;;;18.20;64.10;;;;;;5085533;27;43816;-72
2023/04/03 02:36:15;;;;;;;1.10;1.10;;;18.10;64.30;;;;;;5076623;27;43701;-70
2023/04/03 02:38:49;;;;;;;1.20;1.20;;;18.00;64.60;;;;;;5084831;27;43461;-70
2023/04/03 02:41:17;;;;;;;1.10;1.10;;;18.00;65.10;;;;;;5101171;27;43991;-70
2023/04/03 02:43:45;;;;;;;1.07;1.07;;;17.90;64.80;;;;;;5071423;27;45923;-71
2023/04/03 02:46:14;;;;;;;1.10;1.10;;;17.90;64.90;;;;;;5079892;27;43467;-71
2023/04/03 02:48:43;;;;;;;1.00;1.00;;;17.90;65.00;;;;;;5090909;27;43478;-69
2023/04/03 02:51:11;;;;;;;0.90;0.90;;;17.80;65.10;;;;;;5102202;27;43490;-70
2023/04/03 02:53:39;;;;;;;1.00;1.00;;;17.80;65.40;;;;;;5082132;27;45966;-71
2023/04/03 02:56:14;;;;;;;1.10;1.10;;;17.80;65.60;;;;;;5086376;27;44856;-69
2023/04/03 02:58:42;;;;;;;1.10;1.10;;;17.90;65.40;;;;;;5088712;27;43962;-70
2023/04/03 03:01:10;;;;;;;1.10;1.10;;;18.00;65.10;;;;;;5087739;27;44082;-70
2023/04/03 03:03:38;;;;;;;1.03;1.03;;;18.10;64.90;;;;;;5087084;27;46019;-71
2023/04/03 03:06:07;;;;;;;1.00;1.00;;;18.10;64.70;;;;;;5080441;27;44599;-70
2023/04/03 03:08:35;;;;;;;1.00;1.00;;;18.00;64.90;;;;;;5086680;27;43336;-71
2023/04/03 03:11:04;;;;;;;1.00;1.00;;;18.00;65.00;;;;;;5084988;27;43472;-70
2023/04/03 03:13:33;;;;;;;1.07;1.07;;;18.00;64.90;;;;;;5089542;27;45774;-71
2023/04/03 03:16:01;;;;;;;0.90;0.90;;;17.90;64.80;;;;;;5103035;27;43417;-71
2023/04/03 03:18:29;;;;;;;1.00;1.00;;;17.90;64.90;;;;;;5082100;27;43885;-71
2023/04/03 03:20:58;;;;;;;1.20;1.20;;;17.80;65.00;;;;;;5107797;27;43751;-71
2023/04/03 03:23:27;;;;;;;1.00;1.00;;;17.80;65.40;;;;;;5089155;27;45737;-71
2023/04/03 03:25:56;;;;;;;1.10;1.10;;;17.80;65.40;;;;;;5095043;27;43375;-70
2023/04/03 03:28:24;;;;;;;1.00;1.00;;;17.80;65.40;;;;;;5084558;27;43458;-70
2023/04/03 03:30:53;;;;;;;1.20;1.20;;;17.70;65.30;;;;;;5090854;27;43506;-70
2023/04/03 03:33:22;;;;;;;1.00;1.00;;;17.70;66.10;;;;;;5076774;27;45872;-69
2023/04/03 03:35:50;;;;;;;1.10;1.10;;;17.70;65.50;;;;;;5084464;27;44965;-69
2023/04/03 03:38:19;;;;;;;1.00;1.00;;;17.70;65.80;;;;;;5087850;27;43360;-71
2023/04/03 03:40:48;;;;;;;1.00;1.00;;;17.70;65.50;;;;;;5079013;28;44028;-71
2023/04/03 03:43:17;;;;;;;1.13;1.13;;;17.70;65.50;;;;;;5088781;27;45603;-71
2023/04/03 03:45:50;;;;;;;1.00;1.00;;;17.70;65.60;;;;;;5088752;27;44617;-72
2023/04/03 03:48:20;;;;;;;1.10;1.10;;;17.60;65.50;;;;;;5081173;27;43376;-72
2023/04/03 03:50:48;;;;;;;0.93;0.93;;;17.60;65.60;;;;;;5099540;27;43375;-71
2023/04/03 03:53:19;;;;;;;1.00;1.00;;;17.60;65.80;;;;;;5072027;27;45586;-71
2023/04/03 03:55:48;;;;;;;1.00;1.00;;;17.70;65.70;;;;;;5075192;27;43356;-70
2023/04/03 03:58:16;;;;;;;0.90;0.90;;;17.80;65.40;;;;;;5083650;27;43452;-71
2023/04/03 04:00:45;;;;;;;0.90;0.90;;;17.90;65.00;;;;;;5086104;27;43605;-70
2023/04/03 04:03:13;;;;;;;1.03;1.03;;;17.90;64.80;;;;;;5085243;27;45634;-71
2023/04/03 04:05:43;;;;;;;1.00;1.00;;;17.90;65.00;;;;;;5082874;27;43995;-71
2023/04/03 04:08:11;;;;;;;0.90;0.90;;;17.80;65.10;;;;;;5089281;27;43397;-71
2023/04/03 04:10:40;;;;;;;1.00;1.00;;;17.80;64.90;;;;;;5089864;27;43407;-71
2023/04/03 04:13:10;;;;;;;1.00;1.00;;;17.80;65.00;;;;;;5087575;27;43865;-70
2023/04/03 04:15:40;;;;;;;0.93;0.93;;;17.80;65.10;;;;;;5073595;27;43519;-70
2023/04/03 04:18:08;;;;;;;0.97;0.97;;;17.70;65.20;;;;;;5080889;27;43462;-70
2023/04/03 04:20:38;;;;;;;1.00;1.00;;;17.70;65.40;;;;;;5083495;27;43402;-71
2023/04/03 04:23:07;;;;;;;0.90;0.90;;;17.60;65.50;;;;;;5099002;27;43593;-71
2023/04/03 04:25:37;;;;;;;0.90;0.90;;;17.60;65.30;;;;;;5086950;27;44556;-69
2023/04/03 04:28:06;;;;;;;0.90;0.90;;;17.70;66.20;;;;;;5078375;27;43441;-71
2023/04/03 04:30:35;;;;;;;1.10;1.10;;;17.60;65.50;;;;;;5089389;27;43575;-71
2023/04/03 04:33:04;;;;;;;0.93;0.93;;;17.60;65.60;;;;;;5088521;27;46322;-70
2023/04/03 04:35:34;;;;;;;0.93;0.93;;;17.60;65.80;;;;;;5075453;27;45010;-71
2023/04/03 04:38:03;;;;;;;1.00;1.00;;;17.60;65.80;;;;;;5086735;27;43504;-70
2023/04/03 04:40:33;;;;;;;0.97;0.97;;;17.70;65.70;;;;;;5092377;27;43498;-70
2023/04/03 04:43:00;;;;;;;0.93;0.93;;;17.80;65.30;;;;;;5087841;27;45951;-69
2023/04/03 04:45:29;;;;;;;1.07;1.07;;;17.80;64.90;;;;;;5083540;27;44597;-72
2023/04/03 04:47:57;;;;;;;1.00;1.00;;;17.80;64.80;;;;;;5089500;27;43426;-71
2023/04/03 04:50:26;;;;;;;1.07;1.07;;;17.80;65.00;;;;;;5074850;27;43400;-70
2023/04/03 04:52:55;;;;;;;0.80;0.80;;;17.70;65.10;;;;;;5085365;28;45778;-70
2023/04/03 04:55:23;;;;;;;1.00;1.00;;;17.80;65.00;;;;;;5086664;27;44967;-70
2023/04/03 04:57:52;;;;;;;0.80;0.80;;;17.70;65.00;;;;;;5082909;27;43407;-71
2023/04/03 05:00:22;;;;;;;0.90;0.90;;;17.70;65.10;;;;;;5082244;28;43634;-70
2023/04/03 05:02:50;;;;;;;0.97;0.97;;;17.70;65.20;;;;;;5076335;27;45380;-70
2023/04/03 05:05:20;;;;;;;0.90;0.90;;;17.60;65.10;;;;;;5094374;27;43400;-70
2023/04/03 05:07:48;;;;;;;0.90;0.90;;;17.70;65.50;;;;;;5084089;27;43514;-70
2023/04/03 05:10:16;;;;;;;0.90;0.90;;;17.70;65.20;;;;;;5080493;27;43678;-70
2023/04/03 05:12:45;;;;;;;1.00;1.00;;;17.70;65.20;;;;;;5082858;27;45408;-70
2023/04/03 05:15:15;;;;;;;0.80;0.80;;;17.70;65.30;;;;;;5102431;27;43393;-70
2023/04/03 05:17:44;;;;;;;0.90;0.90;;;17.70;65.30;;;;;;5095030;27;43924;-71
2023/04/03 05:20:14;;;;;;;0.90;0.90;;;17.60;65.30;;;;;;5078966;27;44209;-70
2023/04/03 05:22:45;;;;;;;0.90;0.90;;;17.60;65.50;;;;;;5082676;27;45719;-70
2023/04/03 05:25:13;;;;;;;1.07;1.07;;;17.70;65.30;;;;;;5082630;27;44389;-71
2023/04/03 05:27:44;;;;;;;1.00;1.00;;;17.90;65.10;;;;;;5085736;27;43421;-70
2023/04/03 05:30:14;;;;;;;1.00;1.00;;;17.90;64.70;;;;;;5075941;27;43413;-69
2023/04/03 05:32:43;;;;;;;1.00;1.00;;;17.90;64.50;;;;;;5077228;27;45428;-70
2023/04/03 05:35:17;;;;;;;1.00;1.00;;;17.80;64.80;;;;;;5088508;27;45092;-69
2023/04/03 05:37:48;;;;;;;1.00;1.00;;;17.80;64.80;;;;;;5087970;27;43437;-70
2023/04/03 05:40:18;;;;;;;0.90;0.90;;;17.80;64.70;;;;;;5088816;27;43515;-71
2023/04/03 05:42:48;;;;;;;0.80;0.80;;;17.80;64.80;;;;;;5087838;27;43978;-70
2023/04/03 05:45:20;;;;;;;1.00;1.00;;;17.70;64.80;;;;;;5085956;27;43344;-71
2023/04/03 05:47:48;;;;;;;1.00;1.00;;;17.70;65.00;;;;;;5081535;27;44028;-70
2023/04/03 05:50:16;;;;;;;1.00;1.00;;;17.70;65.30;;;;;;5088083;27;43495;-71
2023/04/03 05:52:45;;;;;;;0.70;0.70;;;17.70;65.20;;;;;;5086241;27;44726;-72
2023/04/03 05:55:14;;;;;;;1.00;1.00;;;17.70;65.20;;;;;;5079457;27;43514;-70
2023/04/03 05:57:42;;;;;;;0.73;0.73;;;17.70;65.20;;;;;;5084236;27;43392;-71
2023/04/03 06:00:16;;;;;;;0.80;0.80;;;17.60;65.10;;;;;;5081290;27;43907;-72
2023/04/03 06:02:52;;;;;;;0.90;0.90;;;17.60;65.20;;;;;;5101850;27;44000;-71
2023/04/03 06:05:23;;;;;;;0.87;0.87;;;17.60;65.40;;;;;;5080911;27;44829;-70
2023/04/03 06:07:51;;;;;;;1.00;1.00;;;17.60;65.10;;;;;;5085719;27;43982;-70
2023/04/03 06:10:19;;;;;;;1.00;1.00;;;17.60;65.10;;;;;;5104081;27;43585;-70
2023/04/03 06:12:47;;;;;;;0.93;0.93;;;17.60;65.10;;;;;;5085733;27;45428;-71
2023/04/03 06:15:16;;;;;;;0.90;0.90;;;17.60;65.10;;;;;;5103150;27;43414;-71
2023/04/03 06:17:44;;;;;;;0.90;0.90;;;17.60;65.20;;;;;;5100642;27;43999;-71
2023/04/03 06:20:14;;;;;;;0.80;0.80;;;17.60;65.50;;;;;;5085013;27;43491;-70
2023/04/03 06:22:42;;;;;;;0.90;0.90;;;17.70;65.40;;;;;;5093657;27;45771;-69
2023/04/03 06:25:12;;;;;;;1.00;1.00;;;17.80;65.10;;;;;;5082099;27;44432;-70
2023/04/03 06:27:39;;;;;;;0.90;0.90;;;17.90;64.80;;;;;;5085158;28;43954;-70
2023/04/03 06:30:08;;;;;;;0.90;0.90;;;17.90;64.40;;;;;;5100178;27;43448;-70
2023/04/03 06:32:36;;;;;;;0.90;0.90;;;17.90;64.30;;;;;;5106107;27;43762;-71
2023/04/03 06:35:05;;;;;;;0.90;0.90;;;17.80;64.60;;;;;;5109556;27;43497;-70
2023/04/03 06:37:34;;;;;;;0.90;0.90;;;17.80;64.70;;;;;;5093250;27;43832;-70
2023/04/03 06:40:03;;;;;;;0.70;0.70;;;17.80;64.50;;;;;;5092983;27;43649;-71
2023/04/03 06:42:31;;;;;;;0.80;0.80;;;17.80;64.60;;;;;;5070007;27;46310;-71
2023/04/03 06:45:09;;;;;;;0.73;0.73;;;17.70;64.70;;;;;;5082085;27;43714;-70
2023/04/03 06:47:37;;;;;;;0.90;0.90;;;17.70;64.90;;;;;;5096019;27;43493;-70
2023/04/03 06:50:06;;;;;;;0.90;0.90;;;17.70;65.10;;;;;;5105905;27;43523;-71
2023/04/03 06:52:35;;;;;;;0.90;0.90;;;17.70;64.90;;;;;;5092772;27;45958;-71
2023/04/03 06:55:04;;;;;;;0.87;0.87;;;17.60;64.80;;;;;;5111413;27;43558;-70
2023/04/03 06:57:32;;;;;;;0.80;0.80;;;17.70;65.00;;;;;;5105658;27;43452;-69
2023/04/03 07:00:00;;;;;;;0.80;0.80;;;17.60;65.00;;;;;;5112595;27;44312;-72
2023/04/03 07:02:28;;;;;;;0.80;0.80;;;17.60;65.10;;;;;;5098478;27;43909;-71
2023/04/03 07:04:56;;;;;;;0.90;0.90;;;17.60;65.40;;;;;;5103533;27;43391;-70
2023/04/03 07:07:24;;;;;;;1.00;1.00;;;17.60;65.10;;;;;;5080064;27;43350;-71
2023/04/03 07:09:54;;;;;;;0.80;0.80;;;17.60;64.90;;;;;;5086190;27;43637;-71
2023/04/03 07:12:23;;;;;;;0.87;0.87;;;17.60;65.10;;;;;;5105585;27;43745;-71
2023/04/03 07:14:51;;;;;;;0.90;0.90;;;17.60;65.20;;;;;;5102656;27;43419;-71
2023/04/03 07:17:19;;;;;;;0.80;0.80;;;17.60;65.20;;;;;;5099906;27;43441;-71
2023/04/03 07:19:47;;;;;;;1.00;1.00;;;17.50;65.40;;;;;;5092722;27;43555;-71
2023/04/03 07:22:15;;;;;;;0.90;0.90;;;17.60;65.40;;;;;;5112683;27;43954;-70
2023/04/03 07:24:43;;;;;;;0.80;0.80;;;17.70;65.20;;;;;;5099662;27;43433;-70
2023/04/03 07:27:12;;;;;;;0.87;0.87;;;17.80;64.80;;;;;;5087122;27;43417;-69
2023/04/03 07:29:40;;;;;;;1.00;1.00;;;17.90;64.40;;;;;;5104322;27;43363;-71
2023/04/03 07:32:08;;;;;;;0.80;0.80;;;17.80;64.30;;;;;;5105707;27;43922;-71
2023/04/03 07:34:36;;;;;;;0.80;0.80;;;17.80;64.60;;;;;;5099130;27;43510;-71
2023/04/03 07:37:04;;;;;;;1.03;1.03;;;17.80;64.70;;;;;;5094825;27;43934;-71
2023/04/03 07:39:32;;;;;;;1.40;0.87;;;17.80;64.50;;;;;;5101968;27;43986;-70
2023/04/03 07:42:00;;;;;;;0.93;0.93;;;17.70;64.50;;;;;;5100603;27;43939;-70
2023/04/03 07:44:29;;;;;;;0.80;0.80;;;17.70;64.70;;;;;;5100911;27;43458;-70
2023/04/03 07:46:57;;;;;;;0.90;0.90;;;17.70;64.90;;;;;;5085262;27;44075;-70
2023/04/03 07:49:26;;;;;;;1.20;1.10;;;17.60;65.70;;;;;;5098611;27;43617;-71
2023/04/03 07:51:54;;;;;;;1.10;1.10;;;17.60;65.10;;;;;;5082706;27;45491;-71
2023/04/03 07:54:22;;;;;;;0.97;0.97;;;17.60;65.00;;;;;;5082854;27;44787;-69
2023/04/03 07:56:50;;;;;;;1.10;1.10;;;17.60;64.90;;;;;;5102495;27;43376;-70
2023/04/03 07:59:18;;;;;;;1.10;1.10;;;17.60;65.00;;;;;;5099073;27;43479;-69
2023/04/03 08:01:50;;;;;;;1.10;1.10;;;17.60;65.10;;;;;;5096621;27;45144;-72
2023/04/03 08:04:18;;;;;;;0.80;0.80;;;17.60;65.10;;;;;;5099911;27;43845;-70
2023/04/03 08:06:46;;;;;;;0.90;0.90;;;17.60;65.30;;;;;;5094244;27;43389;-70
2023/04/03 08:09:15;;;;;;;1.00;1.00;;;17.60;65.10;;;;;;5101724;27;43463;-71
2023/04/03 08:11:43;;;;;;;0.90;0.90;;;17.60;65.10;;;;;;5081778;27;45901;-70
2023/04/03 08:14:16;;;;;;;1.80;1.07;;;17.60;65.20;;;;;;5103039;27;43521;-71
2023/04/03 08:16:44;;;;;;;1.00;1.00;;;17.50;65.10;;;;;;5077560;27;43490;-73
2023/04/03 08:19:15;;;;;;;0.93;0.93;;;17.50;65.20;;;;;;5079763;27;43599;-72
2023/04/03 08:21:53;;;;;;;1.03;1.03;;;17.60;65.60;;;;;;5107343;27;43572;-70
2023/04/03 08:24:21;;;;;;;2.63;1.27;;;17.70;65.30;;;;;;5098285;27;43485;-69
2023/04/03 08:26:49;;;;;;;4.03;1.40;;;17.80;65.10;;;;;;5103406;27;44102;-70
2023/04/03 08:29:17;;;;;;;4.10;1.43;;;17.80;63.80;;;;;;5102401;27;43360;-70
2023/04/03 08:31:46;;;;;;;2.97;1.33;;;17.80;63.90;;;;;;5098988;27;43837;-71
2023/04/03 08:34:15;;;;;;;8.43;1.60;;;17.80;64.10;;;;;;5092708;27;43506;-71
2023/04/03 08:36:43;;;;;;;2.90;1.60;;;17.80;64.60;;;;;;5103425;27;43462;-69
2023/04/03 08:39:11;;;;;;;1.80;1.70;;;17.80;64.40;;;;;;5060882;27;43650;-71
2023/04/03 08:41:41;;;;;;;2.47;1.50;;;17.70;64.30;;;;;;5076824;27;45694;-71
2023/04/03 08:44:17;;;;;;;2.90;1.50;;;17.70;64.50;;;;;;5089806;27;43408;-71
2023/04/03 08:46:53;;;;;;;2.60;1.40;;;17.70;64.70;;;;;;5083052;27;43483;-70
2023/04/03 08:49:25;;;;;;;5.37;1.80;;;17.60;64.80;;;;;;5089969;27;43437;-70
2023/04/03 08:51:53;;;;;;;2.90;1.70;;;17.60;65.10;;;;;;5099838;27;43873;-69
2023/04/03 08:54:31;;;;;;;1.60;1.50;;;17.60;64.80;;;;;;5098621;27;43562;-72
2023/04/03 08:57:03;;;;;;;1.67;1.57;;;17.60;64.90;;;;;;5094802;27;43442;-71
2023/04/03 08:59:33;;;;;;;1.73;1.60;;;17.60;65.00;;;;;;5082914;27;43598;-71
2023/04/03 09:02:04;;;;;;;1.67;1.50;;;17.60;65.10;;;;;;5099625;27;43949;-71
2023/04/03 09:04:34;;;;;;;1.80;1.53;;;17.50;65.20;;;;;;5094858;27;43817;-72
2023/04/03 09:07:05;;;;;;;2.10;1.53;;;17.50;65.40;;;;;;5104107;27;44438;-71
2023/04/03 09:09:36;;;;;;;1.60;1.50;;;17.60;65.10;;;;;;5085582;28;43467;-71
2023/04/03 09:12:09;;;;;;;1.97;1.63;;;17.60;65.30;;;;;;5083419;27;44118;-71
2023/04/03 09:14:39;;;;;;;1.37;1.30;;;17.60;65.30;;;;;;5094593;27;43400;-71
2023/04/03 09:17:13;;;;;;;2.77;1.67;;;17.50;65.30;;;;;;5098296;27;43407;-71
2023/04/03 09:19:44;;;;;;;1.47;1.40;;;17.50;65.40;;;;;;5087602;27;43559;-70
2023/04/03 09:22:17;;;;;;;2.97;1.40;;;17.50;65.80;;;;;;5096683;27;43862;-72
2023/04/03 09:24:45;;;;;;;3.40;1.40;;;17.60;65.60;;;;;;5098790;27;43483;-70
2023/04/03 09:27:13;;;;;;;2.33;1.50;;;17.70;65.30;;;;;;5103849;27;43457;-72
2023/04/03 09:29:43;;;;;;;1.50;1.50;;;17.80;65.00;;;;;;5103546;27;44363;-70
2023/04/03 09:32:21;;;;;;;1.40;1.40;;;17.80;64.60;;;;;;5081383;27;46204;-71
2023/04/03 09:34:50;;;;;;;1.37;1.30;;;17.80;64.80;;;;;;5083864;27;44697;-71
2023/04/03 09:37:35;;;;;;;1.43;1.37;;;17.80;65.10;;;;;;5087547;27;43382;-71
2023/04/03 09:40:04;;;;;;;1.30;1.30;;;17.70;65.00;;;;;;5087527;27;43443;-70
2023/04/03 09:42:32;;;;;;;1.47;1.37;;;17.70;64.90;;;;;;5090020;27;43963;-72
2023/04/03 09:45:00;;;;;;;1.53;1.43;;;17.70;65.20;;;;;;5062766;27;45501;-72
2023/04/03 09:47:29;;;;;;;1.30;1.30;;;17.70;65.30;;;;;;5088305;27;43437;-70
2023/04/03 09:50:27;;;;;;;3.00;1.20;;;17.60;65.40;;;;;;5099932;27;43460;-71
2023/04/03 09:52:55;;;;;;;1.90;1.40;;;17.60;65.70;;;;;;5044727;28;46086;-70
2023/04/03 09:55:27;;;;;;;1.40;1.40;;;17.60;65.60;;;;;;5102927;27;43470;-71
2023/04/03 09:57:54;;;;;;;1.30;1.30;;;17.60;65.60;;;;;;5084446;27;43440;-70
2023/04/03 10:00:23;;;;;;;1.40;1.30;;;17.60;65.80;;;;;;5099809;27;43375;-71
2023/04/03 10:02:52;;;;;;;2.17;1.53;;;17.60;65.80;;;;;;5100085;27;43682;-70
2023/04/03 10:05:30;;;;;;;1.30;1.30;;;17.50;65.80;;;;;;5098888;27;44091;-70
2023/04/03 10:08:09;;;;;;;1.27;1.27;;;17.50;66.00;;;;;;5107098;27;43504;-70
2023/04/03 10:10:37;;;;;;;1.20;1.20;;;17.60;65.80;;;;;;5093015;27;43401;-69
2023/04/03 10:13:11;;;;;;;1.30;1.30;;;17.70;65.40;;;;;;5099940;27;43601;-72
2023/04/03 10:15:52;;;;;;;1.30;1.30;;;17.70;65.40;;;;;;5105649;27;43469;-71
2023/04/03 10:18:29;;;;;;;1.50;1.50;;;17.60;65.40;;;;;;5101080;27;43476;-70
2023/04/03 10:21:01;;;;;;;1.40;1.30;;;17.60;65.60;;;;;;5087196;27;43364;-71
2023/04/03 10:23:31;;;;;;;1.10;1.10;;;17.60;65.60;;;;;;5089452;27;43733;-70
2023/04/03 10:26:05;;;;;;;1.20;1.20;;;17.60;65.50;;;;;;5103857;27;43563;-71
2023/04/03 10:28:36;;;;;;;1.63;1.47;;;17.60;65.60;;;;;;5092620;27;43892;-70
2023/04/03 10:31:06;;;;;;;1.37;1.37;;;17.60;65.70;;;;;;5084767;27;43645;-71
2023/04/03 10:33:41;;;;;;;1.20;1.07;;;17.50;65.80;;;;;;5100333;27;43624;-71
2023/04/03 10:36:17;;;;;;;1.40;1.40;;;17.50;65.80;;;;;;5082204;27;44364;-70
2023/04/03 10:38:51;;;;;;;1.47;1.47;;;17.50;65.80;;;;;;5080677;27;43434;-71
2023/04/03 10:41:23;;;;;;;1.43;1.40;;;17.60;65.60;;;;;;5097262;27;43954;-70
2023/04/03 10:43:55;;;;;;;1.70;1.60;;;17.70;65.30;;;;;;5098752;27;43878;-71
2023/04/03 10:46:24;;;;;;;1.33;1.33;;;17.70;65.00;;;;;;5096920;27;43486;-70
2023/04/03 10:48:59;;;;;;;1.73;1.40;;;17.70;65.20;;;;;;5090249;27;43435;-70
2023/04/03 10:51:30;;;;;;;1.50;1.50;;;17.70;65.30;;;;;;5095420;27;43993;-71
2023/04/03 10:54:01;;;;;;;1.50;1.50;;;17.70;65.40;;;;;;5086950;27;45652;-70
2023/04/03 10:56:33;;;;;;;1.40;1.40;;;17.60;65.20;;;;;;5079583;27;44880;-71
2023/04/03 10:59:04;;;;;;;1.77;1.67;;;17.60;65.40;;;;;;5072856;27;43396;-72
2023/04/03 11:01:33;;;;;;;1.20;1.20;;;17.60;65.50;;;;;;5092546;27;43407;-70
2023/04/03 11:04:02;;;;;;;1.40;1.40;;;17.50;65.60;;;;;;5090883;27;43732;-70
2023/04/03 11:06:37;;;;;;;1.20;1.20;;;17.50;65.80;;;;;;5095073;27;43482;-70
2023/04/03 11:09:08;;;;;;;1.43;1.43;;;17.50;65.80;;;;;;5097806;27;43437;-72
2023/04/03 11:11:38;;;;;;;1.20;1.20;;;17.50;65.70;;;;;;5091132;27;43494;-71
2023/04/03 11:14:10;;;;;;;1.20;1.20;;;17.50;65.80;;;;;;5099730;27;43903;-71
2023/04/03 11:16:41;;;;;;;1.30;1.30;;;17.50;65.80;;;;;;5086932;27;44683;-71
2023/04/03 11:19:23;;;;;;;1.40;1.40;;;17.50;65.80;;;;;;5100579;27;43546;-71
2023/04/03 11:21:56;;;;;;;1.20;1.20;;;17.50;65.80;;;;;;5104103;27;43481;-70
2023/04/03 11:24:25;;;;;;;1.30;1.30;;;17.50;65.90;;;;;;5079889;27;46364;-71
2023/04/03 11:26:53;;;;;;;0.90;0.90;;;17.50;65.70;;;;;;5080260;27;44432;-70
2023/04/03 11:29:23;;;;;;;1.27;1.27;;;17.70;65.40;;;;;;5092454;27;43394;-70
2023/04/03 11:32:10;;;;;;;1.20;1.20;;;17.70;65.10;;;;;;5082623;27;43486;-71
2023/04/03 11:34:40;;;;;;;1.80;1.20;;;17.70;65.10;;;;;;5077896;27;44867;-69
2023/04/03 11:37:14;;;;;;;1.30;1.30;;;17.70;65.30;;;;;;5093398;27;43433;-71
2023/04/03 11:39:47;;;;;;;1.17;1.17;;;17.60;65.20;;;;;;5107110;27;43434;-70
2023/04/03 11:42:16;;;;;;;1.03;1.03;;;17.60;65.20;;;;;;5101185;27;43412;-70
2023/04/03 11:44:45;;;;;;;1.20;1.20;;;17.60;65.20;;;;;;5080357;27;46021;-71
2023/04/03 11:47:13;;;;;;;1.10;1.10;;;17.60;65.30;;;;;;5097623;27;43515;-71
2023/04/03 11:49:59;;;;;;;1.20;1.20;;;17.60;65.40;;;;;;5104299;27;43421;-70
2023/04/03 11:53:04;;;;;;;1.10;1.10;;;17.60;65.70;;;;;;5083481;27;43419;-70
2023/04/03 11:56:14;;;;;;;1.10;1.10;;;17.50;65.70;;;;;;5095594;27;43591;-71
2023/04/03 11:58:43;;;;;;;1.03;1.03;;;17.50;65.60;;;;;;5076218;27;43493;-73
2023/04/03 12:01:11;;;;;;;1.27;1.27;;;17.50;65.60;;;;;;5104451;27;43455;-70
2023/04/03 12:03:58;;;;;;;1.20;1.20;;;17.50;65.70;;;;;;5101176;27;44027;-71
2023/04/03 12:07:13;;;;;;;1.20;1.20;;;17.50;65.80;;;;;;5071338;28;45583;-70
2023/04/03 12:10:08;;;;;;;1.10;1.10;;;17.50;65.80;;;;;;5079804;27;45019;-70
2023/04/03 12:12:58;;;;;;;1.20;1.20;;;17.60;65.50;;;;;;5099917;27;43454;-71
2023/04/03 12:15:52;;;;;;;1.17;1.17;;;17.60;65.10;;;;;;5088666;27;43428;-70
2023/04/03 12:18:56;;;;;;;1.20;1.20;;;17.60;65.30;;;;;;5100740;27;43994;-70
2023/04/03 12:21:25;;;;;;;1.23;1.10;;;17.60;66.00;;;;;;5102640;27;43439;-70
2023/04/03 12:24:04;;;;;;;0.90;0.90;;;17.60;65.50;;;;;;5084395;27;44168;-71
2023/04/03 12:26:37;;;;;;;1.20;1.20;;;17.60;65.40;;;;;;5096385;27;43933;-72
2023/04/03 12:29:18;;;;;;;1.00;1.00;;;17.60;65.50;;;;;;5079220;28;43884;-71
2023/04/03 12:31:49;;;;;;;1.00;1.00;;;17.60;65.60;;;;;;5070996;28;44575;-72
2023/04/03 12:34:26;;;;;;;1.00;1.00;;;17.60;65.60;;;;;;5088885;27;43459;-70
2023/04/03 12:37:00;;;;;;;1.23;1.17;;;17.50;65.60;;;;;;5091573;27;43396;-71
2023/04/03 12:39:41;;;;;;;1.20;1.20;;;17.50;65.80;;;;;;5094503;27;44009;-70
2023/04/03 12:42:18;;;;;;;1.00;1.00;;;17.60;65.60;;;;;;5095032;27;43465;-70
2023/04/03 12:44:49;;;;;;;0.90;0.90;;;17.60;65.10;;;;;;5099678;27;43479;-71
2023/04/03 12:47:23;;;;;;;1.30;1.30;;;17.70;65.20;;;;;;5076569;28;43411;-71
2023/04/03 12:49:51;;;;;;;1.10;1.10;;;17.60;65.20;;;;;;5088153;27;43607;-70
2023/04/03 12:52:35;;;;;;;0.97;0.97;;;17.60;65.30;;;;;;5101455;27;43738;-70
2023/04/03 12:55:04;;;;;;;1.70;1.10;;;17.60;65.40;;;;;;5091839;27;43415;-71
2023/04/03 12:57:34;;;;;;;1.00;1.00;;;17.60;65.30;;;;;;5104393;27;43444;-70
2023/04/03 13:00:05;;;;;;;1.10;1.10;;;17.60;65.40;;;;;;5075735;27;46086;-72
2023/04/03 13:02:34;;;;;;;1.20;1.20;;;17.50;65.40;;;;;;5084896;27;43485;-71
2023/04/03 13:05:06;;;;;;;1.10;1.10;;;17.50;65.50;;;;;;5099019;27;43466;-70
2023/04/03 13:07:37;;;;;;;1.40;1.40;;;17.50;65.80;;;;;;5108475;27;43834;-70